Time;durP1;ratioP1;P1;durP2;ratioP2;P2;SDS_P1;SDS_P2;PMS_P1;PMS_P2;Temp;Humidity;BMP_temperature;BMP_pressure;BME280_temperature;BME280_humidity;BME280_pressure;Samples;Min_cycle;Max_cycle;Signal;HPM_P1;HPM_P2
2023/07/12 00:01:29;;;;;;;;;32.50;29.25;;;;;27.41;38.53;99320.66;5069088;28;8844;-73
2023/07/12 00:03:58;;;;;;;;;28.25;27.25;;;;;27.39;38.46;99315.41;5069974;28;8920;-73
2023/07/12 00:06:36;;;;;;;;;28.00;28.00;;;;;27.44;38.15;99315.00;5003360;28;9005;-73
2023/07/12 00:09:06;;;;;;;;;29.75;28.25;;;;;27.45;38.29;99316.69;5021341;28;8901;-73
2023/07/12 00:11:35;;;;;;;;;30.75;29.50;;;;;27.42;38.01;99308.84;5071146;28;8943;-74
2023/07/12 00:14:03;;;;;;;;;23.00;22.50;;;;;27.39;38.00;99309.19;5051078;28;8845;-71
2023/07/12 00:16:38;;;;;;;;;31.00;29.00;;;;;27.35;38.10;99315.88;5051361;28;8863;-73
2023/07/12 00:19:07;;;;;;;;;29.00;28.75;;;;;27.33;38.02;99309.75;5051136;28;8891;-72
2023/07/12 00:21:36;;;;;;;;;26.50;26.50;;;;;27.38;37.99;99312.84;5082250;28;8851;-73
2023/07/12 00:24:05;;;;;;;;;32.00;30.25;;;;;27.40;38.31;99311.72;5071464;28;8866;-73
2023/07/12 00:26:36;;;;;;;;;27.25;27.25;;;;;27.42;38.21;99311.56;5035560;28;8874;-72
2023/07/12 00:29:07;;;;;;;;;30.75;29.25;;;;;27.37;38.17;99312.00;5108553;28;8918;-72
2023/07/12 00:31:39;;;;;;;;;30.75;30.00;;;;;27.33;38.23;99309.75;5092212;28;8853;-73
2023/07/12 00:34:09;;;;;;;;;29.25;29.00;;;;;27.37;38.20;99303.06;5058306;28;9007;-72
2023/07/12 00:36:37;;;;;;;;;30.50;28.50;;;;;27.39;38.23;99306.47;5069492;27;8870;-73
2023/07/12 00:39:07;;;;;;;;;29.50;29.50;;;;;27.37;38.18;99312.00;5111894;27;8941;-73
2023/07/12 00:41:55;;;;;;;;;29.75;29.00;;;;;27.52;38.04;99312.41;5079555;27;8853;-73
2023/07/12 00:44:27;;;;;;;;;28.00;27.50;;;;;27.41;37.83;99323.38;5048087;28;8846;-73
2023/07/12 00:46:58;;;;;;;;;30.50;28.75;;;;;27.41;37.82;99320.66;5028296;28;8842;-73
2023/07/12 00:49:28;;;;;;;;;24.25;23.50;;;;;27.36;37.71;99325.66;5027843;28;8857;-73
2023/07/12 00:52:01;;;;;;;;;29.50;28.50;;;;;27.31;37.76;99323.41;5028221;28;8846;-74
2023/07/12 00:54:49;;;;;;;;;30.25;29.25;;;;;27.37;37.84;99319.28;5044018;28;9706;-73
2023/07/12 00:57:18;;;;;;;;;21.25;21.00;;;;;27.28;38.09;99318.28;5047745;28;8872;-73
2023/07/12 00:59:47;;;;;;;;;31.75;30.75;;;;;27.31;38.60;99315.31;5028550;28;8862;-74
2023/07/12 01:02:18;;;;;;;;;33.25;31.50;;;;;27.34;38.80;99311.44;4991729;28;8874;-72
2023/07/12 01:04:49;;;;;;;;;32.25;29.25;;;;;27.33;38.09;99305.22;5007618;28;8878;-74
2023/07/12 01:07:20;;;;;;;;;28.50;28.50;;;;;27.29;38.04;99309.22;4991659;28;8862;-72
2023/07/12 01:09:49;;;;;;;;;27.25;25.00;;;;;27.24;38.42;99304.22;5009773;28;8843;-74
2023/07/12 01:12:18;;;;;;;;;29.50;28.75;;;;;27.24;38.05;99309.63;5027789;28;8875;-73
2023/07/12 01:14:47;;;;;;;;;28.50;28.00;;;;;27.20;38.34;99302.81;5010914;28;8887;-73
2023/07/12 01:17:17;;;;;;;;;29.50;28.00;;;;;27.21;38.46;99303.66;4979162;28;8872;-72
2023/07/12 01:19:48;;;;;;;;;29.25;29.00;;;;;27.22;38.37;99303.53;5027404;28;8860;-73
2023/07/12 01:22:19;;;;;;;;;31.25;30.50;;;;;27.24;38.58;99301.53;5055550;28;8870;-73
2023/07/12 01:24:47;;;;;;;;;28.00;27.25;;;;;27.24;38.59;99293.44;5069931;28;8884;-73
2023/07/12 01:27:19;;;;;;;;;28.00;27.25;;;;;27.22;38.72;99294.59;5069715;28;8946;-73
2023/07/12 01:29:51;;;;;;;;;28.25;27.75;;;;;27.25;38.69;99291.59;5049374;28;8861;-73
2023/07/12 01:32:21;;;;;;;;;27.50;26.25;;;;;27.20;38.51;99289.34;5048768;28;8915;-73
2023/07/12 01:34:50;;;;;;;;;27.50;27.50;;;;;27.20;38.35;99286.63;5011384;28;8858;-73
2023/07/12 01:37:20;;;;;;;;;27.25;27.25;;;;;27.16;38.57;99287.09;5068455;28;8863;-73
2023/07/12 01:39:49;;;;;;;;;27.75;27.00;;;;;27.16;38.47;99287.09;5068179;28;8995;-72
2023/07/12 01:42:17;;;;;;;;;28.25;27.50;;;;;27.14;38.28;99287.22;5017746;28;8836;-71
2023/07/12 01:44:46;;;;;;;;;27.25;26.50;;;;;27.12;38.32;99297.31;5087007;28;8932;-72
2023/07/12 01:47:15;;;;;;;;;26.50;26.25;;;;;27.09;38.46;99300.28;5092707;28;8859;-72
2023/07/12 01:49:43;;;;;;;;;29.25;27.00;;;;;27.12;38.80;99291.03;5070239;28;9639;-73
2023/07/12 01:52:14;;;;;;;;;24.50;24.50;;;;;27.11;38.80;99295.59;5086937;28;9570;-74
2023/07/12 01:54:44;;;;;;;;;31.00;28.00;;;;;27.11;38.96;99294.75;5087075;28;8985;-73
2023/07/12 01:57:13;;;;;;;;;27.25;27.25;;;;;27.09;39.00;99286.81;5069813;28;8824;-73
2023/07/12 01:59:42;;;;;;;;;27.00;27.00;;;;;27.04;39.23;99280.97;5036700;28;8863;-73
2023/07/12 02:02:11;;;;;;;;;27.00;26.75;;;;;27.02;39.21;99288.38;5037596;28;8852;-72
2023/07/12 02:04:39;;;;;;;;;30.50;29.50;;;;;27.00;38.77;99285.78;5084553;28;9554;-72
2023/07/12 02:07:08;;;;;;;;;29.00;28.75;;;;;27.01;39.11;99287.50;5049615;28;8921;-74
2023/07/12 02:09:40;;;;;;;;;24.75;24.75;;;;;27.06;39.20;99284.38;5066165;28;8946;-71
2023/07/12 02:12:11;;;;;;;;;31.00;30.00;;;;;27.05;39.44;99285.41;5066435;28;8863;-71
2023/07/12 02:14:40;;;;;;;;;30.75;30.00;;;;;27.05;39.37;99277.31;5032804;28;8839;-72
2023/07/12 02:17:10;;;;;;;;;33.75;31.25;;;;;27.04;40.18;99270.19;5054675;28;8902;-72
2023/07/12 02:19:40;;;;;;;;;31.25;30.00;;;;;27.02;40.44;99274.88;5075910;28;8862;-72
2023/07/12 02:22:09;;;;;;;;;27.75;27.75;;;;;27.01;39.90;99270.47;5068866;28;8866;-72
2023/07/12 02:24:38;;;;;;;;;32.00;30.25;;;;;26.96;39.79;99273.59;5068626;28;8854;-73
2023/07/12 02:27:07;;;;;;;;;29.25;27.25;;;;;26.92;39.37;99268.63;5068401;28;8850;-72
2023/07/12 02:29:38;;;;;;;;;30.50;28.75;;;;;26.89;39.78;99261.69;5053988;28;8848;-72
2023/07/12 02:32:08;;;;;;;;;28.00;27.00;;;;;26.86;39.98;99264.66;4998240;28;8887;-73
2023/07/12 02:34:36;;;;;;;;;31.75;29.75;;;;;26.82;40.23;99256.00;5054048;28;8860;-73
2023/07/12 02:37:05;;;;;;;;;31.00;29.50;;;;;26.80;39.91;99255.31;5053693;28;8867;-73
2023/07/12 02:39:34;;;;;;;;;28.00;28.00;;;;;26.78;39.94;99246.50;5088966;28;8950;-73
2023/07/12 02:42:03;;;;;;;;;30.75;30.00;;;;;26.76;39.77;99245.81;5088568;28;9605;-73
2023/07/12 02:44:32;;;;;;;;;35.50;29.75;;;;;26.75;40.14;99245.94;5088476;28;8922;-72
2023/07/12 02:47:02;;;;;;;;;29.25;29.25;;;;;26.73;40.36;99239.84;5088357;28;8844;-72
2023/07/12 02:49:31;;;;;;;;;29.75;28.25;;;;;26.70;40.56;99230.19;5087057;28;9674;-74
2023/07/12 02:52:00;;;;;;;;;35.25;31.75;;;;;26.69;40.44;99228.50;5071803;28;8956;-73
2023/07/12 02:54:29;;;;;;;;;30.00;30.00;;;;;26.65;39.88;99221.69;5088301;28;8856;-72
2023/07/12 02:56:58;;;;;;;;;23.25;22.25;;;;;26.60;39.64;99235.59;5086173;28;8835;-71
2023/07/12 02:59:27;;;;;;;;;26.25;25.75;;;;;26.57;39.88;99232.31;5088164;28;8990;-72
2023/07/12 03:01:56;;;;;;;;;25.25;25.00;;;;;26.57;40.02;99241.28;5068145;28;8893;-73
2023/07/12 03:04:26;;;;;;;;;29.00;28.00;;;;;26.55;39.79;99237.00;5049171;28;8866;-72
2023/07/12 03:06:56;;;;;;;;;24.50;24.50;;;;;26.57;39.89;99243.13;5068046;28;8846;-72
2023/07/12 03:09:24;;;;;;;;;26.50;26.25;;;;;26.55;39.83;99245.09;5066392;28;8928;-73
2023/07/12 03:11:53;;;;;;;;;26.75;25.75;;;;;26.58;40.15;99242.97;5086505;28;8958;-73
2023/07/12 03:14:23;;;;;;;;;32.00;30.00;;;;;26.60;40.43;99246.38;5085740;28;8984;-72
2023/07/12 03:16:52;;;;;;;;;30.25;29.75;;;;;26.62;40.74;99246.25;5067988;28;8835;-74
2023/07/12 03:19:22;;;;;;;;;34.75;32.00;;;;;26.65;41.33;99244.09;5067829;28;8884;-73
2023/07/12 03:21:53;;;;;;;;;41.75;35.50;;;;;26.57;42.23;99229.63;5067888;28;8907;-74
2023/07/12 03:24:21;;;;;;;;;35.75;32.75;;;;;26.54;42.10;99244.25;5067453;28;8863;-72
2023/07/12 03:26:50;;;;;;;;;34.75;32.00;;;;;26.55;42.43;99240.59;5068159;28;9039;-73
2023/07/12 03:29:19;;;;;;;;;33.00;31.25;;;;;26.57;41.96;99235.91;5083843;28;8924;-73
2023/07/12 03:31:48;;;;;;;;;36.50;33.00;;;;;26.58;42.30;99239.44;5087883;28;8839;-74
2023/07/12 03:34:16;;;;;;;;;28.50;28.50;;;;;26.56;41.55;99230.66;5087659;28;8855;-72
2023/07/12 03:36:45;;;;;;;;;30.25;26.75;;;;;26.54;40.64;99228.09;5088054;28;8856;-74
2023/07/12 03:39:15;;;;;;;;;26.00;26.00;;;;;26.58;40.70;99231.34;5087770;28;8983;-73
2023/07/12 03:41:44;;;;;;;;;30.25;28.00;;;;;26.58;40.41;99240.28;5088036;28;8967;-74
2023/07/12 03:44:13;;;;;;;;;34.75;31.75;;;;;26.62;40.56;99240.84;5086069;28;8847;-76
2023/07/12 03:46:42;;;;;;;;;29.75;29.00;;;;;26.69;40.27;99241.97;5088333;28;8860;-73
2023/07/12 03:49:10;;;;;;;;;24.50;24.50;;;;;26.76;39.77;99234.16;5087561;28;8891;-74
2023/07/12 03:51:39;;;;;;;;;31.00;28.00;;;;;26.79;39.99;99248.19;5088328;28;8843;-74
2023/07/12 03:54:08;;;;;;;;;29.50;27.50;;;;;26.85;40.33;99250.34;5087884;28;8948;-73
2023/07/12 03:56:38;;;;;;;;;30.25;29.00;;;;;26.84;40.35;99237.84;5071253;28;8830;-72
2023/07/12 03:59:08;;;;;;;;;31.25;30.50;;;;;26.94;40.93;99253.16;5067980;28;8889;-74
2023/07/12 04:01:37;;;;;;;;;36.50;32.75;;;;;26.96;40.63;99256.56;5074961;28;9681;-73
2023/07/12 04:04:06;;;;;;;;;42.50;36.75;;;;;27.03;40.77;99246.91;5086420;28;8964;-73
2023/07/12 04:06:35;;;;;;;;;31.00;29.75;;;;;27.09;41.12;99248.19;5088126;28;8855;-72
2023/07/12 04:09:04;;;;;;;;;35.50;30.25;;;;;27.12;40.56;99248.75;5087807;28;8836;-73
2023/07/12 04:11:35;;;;;;;;;34.00;31.75;;;;;27.09;40.62;99249.03;5052479;28;8852;-73
2023/07/12 04:14:06;;;;;;;;;30.50;29.75;;;;;26.99;40.18;99250.88;5053323;28;8969;-72
2023/07/12 04:16:35;;;;;;;;;58.00;46.75;;;;;27.08;40.25;99254.56;5085674;28;9600;-75
2023/07/12 04:19:04;;;;;;;;;34.25;32.00;;;;;26.82;40.42;99261.41;5087934;28;8921;-73
2023/07/12 04:21:33;;;;;;;;;37.00;33.00;;;;;26.66;41.08;99271.91;5061689;28;8869;-73
2023/07/12 04:24:01;;;;;;;;;36.50;33.50;;;;;26.53;42.09;99271.34;5032333;28;9792;-73
2023/07/12 04:26:30;;;;;;;;;28.75;28.50;;;;;26.72;40.73;99257.00;5050869;28;8938;-73
2023/07/12 04:28:59;;;;;;;;;34.00;32.00;;;;;26.80;40.72;99273.34;5050973;28;8954;-76
2023/07/12 04:31:30;;;;;;;;;33.25;31.50;;;;;26.84;41.25;99275.59;5050589;28;8829;-72
2023/07/12 04:33:58;;;;;;;;;31.25;30.00;;;;;26.88;40.87;99270.75;5051475;28;8864;-73
2023/07/12 04:36:27;;;;;;;;;38.75;33.50;;;;;26.89;41.42;99277.00;5050711;28;8896;-75
2023/07/12 04:38:56;;;;;;;;;39.00;34.25;;;;;26.99;40.68;99277.84;5050781;28;8852;-74
2023/07/12 04:41:26;;;;;;;;;43.50;37.50;;;;;27.13;40.84;99277.41;5061310;28;8830;-71
2023/07/12 04:43:54;;;;;;;;;33.00;31.75;;;;;27.12;40.69;99278.44;5071335;28;8850;-73
2023/07/12 04:46:23;;;;;;;;;35.75;33.00;;;;;27.21;40.45;99266.75;5070731;28;8854;-74
2023/07/12 04:48:53;;;;;;;;;27.75;27.75;;;;;27.31;40.57;99279.34;5056352;28;9097;-72
2023/07/12 04:51:24;;;;;;;;;33.00;30.25;;;;;27.36;40.18;99279.75;5016431;28;8853;-73
2023/07/12 04:53:53;;;;;;;;;36.25;32.25;;;;;27.40;39.98;99282.03;5068935;28;9659;-74
2023/07/12 04:56:22;;;;;;;;;34.00;32.00;;;;;27.26;39.92;99293.28;5040165;28;8863;-75
2023/07/12 04:58:50;;;;;;;;;32.75;31.75;;;;;27.06;40.59;99303.25;5066955;28;8877;-74
2023/07/12 05:01:21;;;;;;;;;43.00;37.00;;;;;27.05;40.78;99294.34;5015939;28;8931;-74
2023/07/12 05:03:50;;;;;;;;;38.00;34.50;;;;;27.25;40.36;99305.09;5000332;28;8841;-73
2023/07/12 05:06:20;;;;;;;;;55.75;46.75;;;;;27.37;39.81;99293.13;5059559;28;8831;-72
2023/07/12 05:08:52;;;;;;;;;46.25;38.00;;;;;27.53;40.11;99302.44;5035272;28;8916;-73
2023/07/12 05:11:21;;;;;;;;;34.50;31.25;;;;;27.63;39.67;99296.03;5053300;28;9649;-74
2023/07/12 05:13:53;;;;;;;;;30.25;28.50;;;;;27.74;39.67;99294.13;5076141;28;8882;-73
2023/07/12 05:16:22;;;;;;;;;32.25;29.75;;;;;27.84;39.52;99284.16;5070141;28;8854;-73
2023/07/12 05:18:50;;;;;;;;;35.75;32.25;;;;;27.94;39.19;99278.69;5062872;28;8887;-72
2023/07/12 05:21:23;;;;;;;;;33.50;31.25;;;;;27.95;39.37;99274.97;5064358;28;8885;-72
2023/07/12 05:23:53;;;;;;;;;31.00;29.75;;;;;28.00;38.26;99273.50;5069566;28;8854;-74
2023/07/12 05:26:22;;;;;;;;;35.50;32.00;;;;;28.03;38.66;99278.63;5069758;28;8866;-73
2023/07/12 05:28:51;;;;;;;;;25.75;25.75;;;;;28.08;37.76;99286.25;5073852;28;8839;-73
2023/07/12 05:31:20;;;;;;;;;31.50;29.75;;;;;28.19;37.25;99280.69;5061927;28;8865;-73
2023/07/12 05:33:50;;;;;;;;;32.50;29.75;;;;;28.31;37.16;99278.63;5052507;28;8850;-75
2023/07/12 05:36:20;;;;;;;;;29.50;29.50;;;;;28.45;37.17;99276.38;5062341;28;8849;-74
2023/07/12 05:38:49;;;;;;;;;29.50;28.25;;;;;28.58;37.46;99272.28;5063863;28;8878;-74
2023/07/12 05:41:18;;;;;;;;;29.75;29.00;;;;;28.72;36.93;99275.47;5069475;28;8855;-74
2023/07/12 05:43:47;;;;;;;;;27.75;27.75;;;;;28.85;36.71;99278.63;5069683;28;8873;-75
2023/07/12 05:46:16;;;;;;;;;30.00;29.50;;;;;28.58;36.46;99283.09;5075703;28;8852;-75
2023/07/12 05:48:45;;;;;;;;;30.50;29.75;;;;;28.73;36.89;99288.00;5070525;28;8856;-74
2023/07/12 05:51:13;;;;;;;;;31.25;30.25;;;;;28.89;36.60;99287.28;5076967;28;8854;-73
2023/07/12 05:53:43;;;;;;;;;27.25;24.50;;;;;29.04;36.36;99287.56;5068825;28;8893;-74
2023/07/12 05:56:13;;;;;;;;;33.25;30.00;;;;;29.21;35.82;99289.38;5069270;28;8850;-73
2023/07/12 05:58:42;;;;;;;;;22.25;22.25;;;;;29.43;35.34;99288.00;5065597;28;8862;-74
2023/07/12 06:01:11;;;;;;;;;24.75;24.50;;;;;29.54;35.48;99289.59;5068817;28;8897;-73
2023/07/12 06:03:40;;;;;;;;;26.25;26.25;;;;;29.72;34.76;99297.66;5068743;28;9008;-70
2023/07/12 06:06:09;;;;;;;;;24.75;22.50;;;;;29.87;34.78;99300.59;5067058;28;8889;-69
2023/07/12 06:08:38;;;;;;;;;21.50;19.75;;;;;29.99;34.26;99307.41;5067805;28;8842;-70
2023/07/12 06:11:09;;;;;;;;;37.50;33.00;;;;;30.02;33.82;99307.09;5067698;28;8835;-67
2023/07/12 06:13:39;;;;;;;;;35.75;32.25;;;;;29.96;34.27;99307.75;5065910;28;8842;-67
2023/07/12 06:16:08;;;;;;;;;26.50;26.25;;;;;30.03;33.97;99316.06;5067763;28;8869;-68
2023/07/12 06:18:37;;;;;;;;;27.75;27.75;;;;;30.20;34.23;99317.00;5049924;28;8973;-69
2023/07/12 06:21:09;;;;;;;;;27.50;27.50;;;;;30.30;34.09;99317.72;5032208;28;8874;-68
2023/07/12 06:23:39;;;;;;;;;28.50;24.75;;;;;30.01;34.11;99318.09;5058622;28;9612;-68
2023/07/12 06:26:09;;;;;;;;;29.00;28.00;;;;;30.02;34.63;99320.63;5063784;28;8858;-68
2023/07/12 06:28:38;;;;;;;;;35.00;30.50;;;;;30.18;34.10;99322.59;5032439;28;8862;-68
2023/07/12 06:31:06;;;;;;;;;33.50;31.25;;;;;30.19;34.50;99332.41;5068381;28;8892;-70
2023/07/12 06:33:38;;;;;;;;;30.50;29.25;;;;;30.36;34.27;99335.19;5067890;28;8866;-68
2023/07/12 06:36:07;;;;;;;;;28.75;28.50;;;;;30.39;34.61;99349.25;5067719;28;9629;-70
2023/07/12 06:38:36;;;;;;;;;28.25;27.50;;;;;30.47;34.69;99348.44;5068775;28;8874;-68
2023/07/12 06:41:04;;;;;;;;;37.50;32.25;;;;;30.60;34.43;99346.09;5032939;28;8869;-69
2023/07/12 06:43:35;;;;;;;;;33.00;29.75;;;;;30.75;34.19;99353.56;5064687;28;8866;-69
2023/07/12 06:46:04;;;;;;;;;39.25;34.25;;;;;30.86;34.41;99354.13;5065307;28;8832;-70
2023/07/12 06:48:33;;;;;;;;;30.75;29.00;;;;;30.98;33.64;99360.06;5065482;28;8874;-70
2023/07/12 06:51:02;;;;;;;;;30.50;28.50;;;;;31.04;33.56;99367.50;5032200;28;8868;-67
2023/07/12 06:53:30;;;;;;;;;29.50;29.00;;;;;30.54;34.44;99363.03;5048437;28;8834;-70
2023/07/12 06:55:59;;;;;;;;;35.75;31.75;;;;;30.57;34.31;99368.09;5032580;28;8825;-70
2023/07/12 06:58:28;;;;;;;;;35.00;31.25;;;;;30.17;34.32;99368.81;5013902;28;8846;-68
2023/07/12 07:00:58;;;;;;;;;30.50;29.00;;;;;30.18;34.85;99362.41;5048965;28;8837;-68
2023/07/12 07:03:27;;;;;;;;;31.75;29.75;;;;;30.17;34.36;99366.94;5048176;28;8876;-70
2023/07/12 07:05:56;;;;;;;;;33.00;31.25;;;;;29.31;35.98;99367.78;5061777;28;8850;-69
2023/07/12 07:08:27;;;;;;;;;32.00;31.00;;;;;29.56;35.60;99364.25;5065097;28;8905;-71
2023/07/12 07:10:57;;;;;;;;;37.00;32.25;;;;;29.17;36.09;99366.50;5049956;28;8944;-70
2023/07/12 07:13:26;;;;;;;;;31.75;30.00;;;;;29.18;35.62;99369.06;5061476;28;8862;-69
2023/07/12 07:15:55;;;;;;;;;27.00;26.00;;;;;29.69;34.80;99376.53;5067024;28;9651;-71
2023/07/12 07:18:25;;;;;;;;;30.50;29.00;;;;;30.07;34.09;99375.22;5058638;28;8873;-74
2023/07/12 07:20:54;;;;;;;;;30.75;29.75;;;;;29.72;33.23;99370.81;5067293;28;8843;-71
2023/07/12 07:23:25;;;;;;;;;31.50;29.00;;;;;29.20;34.16;99365.34;5031834;28;8905;-74
2023/07/12 07:25:54;;;;;;;;;29.25;28.25;;;;;29.52;33.40;99375.56;5067552;28;8950;-73
2023/07/12 07:28:22;;;;;;;;;29.25;28.00;;;;;29.10;33.82;99374.41;5031681;28;8862;-74
2023/07/12 07:30:55;;;;;;;;;32.00;29.50;;;;;29.54;33.25;99371.69;5067551;28;8959;-75
2023/07/12 07:33:25;;;;;;;;;31.00;30.00;;;;;28.94;34.30;99379.66;5067701;28;8873;-71
2023/07/12 07:35:55;;;;;;;;;29.00;28.50;;;;;29.51;34.04;99374.69;5032130;28;8877;-72
2023/07/12 07:38:27;;;;;;;;;32.25;30.75;;;;;29.42;33.63;99380.22;5066222;28;8850;-72
2023/07/12 07:40:56;;;;;;;;;31.75;30.00;;;;;29.44;33.87;99373.63;5065970;28;8846;-70
2023/07/12 07:43:25;;;;;;;;;33.00;30.75;;;;;29.47;33.97;99381.44;5067495;28;9000;-73
2023/07/12 07:45:54;;;;;;;;;34.00;31.00;;;;;29.53;33.36;99380.81;5067113;28;8862;-72
2023/07/12 07:48:23;;;;;;;;;32.75;31.25;;;;;29.72;33.44;99379.78;5067376;28;9049;-71
2023/07/12 07:50:53;;;;;;;;;33.75;30.75;;;;;29.55;33.88;99380.66;5066460;28;8868;-72
2023/07/12 07:53:21;;;;;;;;;37.25;33.25;;;;;29.45;33.98;99388.88;5066330;28;8959;-72
2023/07/12 07:55:51;;;;;;;;;36.75;33.25;;;;;29.58;33.49;99385.75;5068993;28;9428;-72
2023/07/12 07:58:20;;;;;;;;;39.50;35.25;;;;;29.53;34.35;99385.38;5071568;28;8862;-72
2023/07/12 08:00:49;;;;;;;;;33.33;31.33;;;;;29.68;34.16;99372.97;5036029;28;8838;-72
2023/07/12 08:03:18;;;;;;;;;34.00;31.00;;;;;29.95;33.22;99371.94;5071286;28;8948;-73
2023/07/12 08:05:47;;;;;;;;;35.25;31.75;;;;;30.14;33.65;99367.25;5071204;28;8858;-73
2023/07/12 08:08:19;;;;;;;;;31.75;30.00;;;;;30.15;33.64;99358.97;5071177;28;8993;-72
2023/07/12 08:10:48;;;;;;;;;34.25;31.00;;;;;30.47;32.96;99354.69;5071378;28;8882;-73
2023/07/12 08:13:17;;;;;;;;;36.75;33.50;;;;;29.91;33.87;99357.00;5071161;28;8888;-73
2023/07/12 08:15:46;;;;;;;;;31.25;29.25;;;;;29.80;33.77;99353.75;5067443;28;8889;-74
2023/07/12 08:18:14;;;;;;;;;34.00;31.50;;;;;30.19;33.40;99359.53;5071031;28;8855;-72
2023/07/12 08:20:43;;;;;;;;;31.75;29.25;;;;;30.48;33.27;99350.13;5070597;28;8955;-73
2023/07/12 08:23:12;;;;;;;;;33.50;31.25;;;;;30.32;32.82;99361.78;5066025;28;8888;-72
2023/07/12 08:25:42;;;;;;;;;40.50;35.50;;;;;29.55;34.76;99365.25;5061757;28;8858;-72
2023/07/12 08:28:11;;;;;;;;;33.75;31.00;;;;;30.19;33.70;99370.38;5051442;28;8879;-72
2023/07/12 08:30:40;;;;;;;;;34.75;32.00;;;;;30.21;33.55;99368.34;5070451;28;8854;-73
2023/07/12 08:33:09;;;;;;;;;35.75;31.75;;;;;30.28;32.97;99360.41;5070533;28;8878;-73
2023/07/12 08:35:38;;;;;;;;;37.25;32.50;;;;;30.34;32.66;99352.47;5070309;28;8851;-73
2023/07/12 08:38:17;;;;;;;;;34.25;30.25;;;;;30.84;32.47;99353.44;5070187;28;8884;-72
2023/07/12 08:40:49;;;;;;;;;40.00;34.25;;;;;30.97;31.91;99350.19;5070266;28;8850;-74
2023/07/12 08:43:21;;;;;;;;;34.50;32.25;;;;;30.80;31.81;99343.06;5069626;28;8889;-74
2023/07/12 08:45:56;;;;;;;;;39.75;35.00;;;;;30.80;32.52;99351.22;5070444;28;8913;-71
2023/07/12 08:48:25;;;;;;;;;36.25;32.00;;;;;31.01;32.15;99343.44;5070312;28;8955;-73
2023/07/12 08:50:54;;;;;;;;;35.25;31.50;;;;;30.07;33.38;99345.41;5070272;28;8839;-73
2023/07/12 08:53:26;;;;;;;;;32.25;30.75;;;;;30.78;32.77;99337.81;5085763;28;8870;-74
2023/07/12 08:56:00;;;;;;;;;35.00;31.75;;;;;31.19;32.48;99334.28;5071524;28;8846;-72
2023/07/12 08:58:35;;;;;;;;;37.00;32.75;;;;;31.66;32.17;99331.66;5069133;28;8859;-72
2023/07/12 09:01:08;;;;;;;;;33.00;31.25;;;;;31.79;31.43;99325.69;5050117;28;8861;-73
2023/07/12 09:03:37;;;;;;;;;30.25;29.00;;;;;32.21;31.13;99318.22;5031926;28;8865;-73
2023/07/12 09:06:11;;;;;;;;;36.75;33.50;;;;;32.52;30.70;99329.06;5049878;28;8888;-72
2023/07/12 09:08:45;;;;;;;;;33.00;31.25;;;;;32.59;30.65;99324.59;5048725;28;8849;-73
2023/07/12 09:11:18;;;;;;;;;32.25;31.00;;;;;32.84;30.50;99311.66;5050009;28;9583;-73
2023/07/12 09:13:50;;;;;;;;;31.50;30.50;;;;;33.07;29.83;99301.75;5049983;28;8853;-75
2023/07/12 09:16:23;;;;;;;;;36.25;31.75;;;;;32.81;29.87;99303.03;5049712;28;8853;-72
2023/07/12 09:18:56;;;;;;;;;33.00;30.75;;;;;32.37;30.29;99295.50;5050183;28;9626;-73
2023/07/12 09:21:26;;;;;;;;;32.00;30.50;;;;;32.40;30.65;99300.59;5051386;28;9571;-73
2023/07/12 09:24:11;;;;;;;;;33.25;31.00;;;;;32.71;29.73;99296.97;5069795;28;8878;-73
2023/07/12 09:26:43;;;;;;;;;29.00;28.50;;;;;32.94;30.17;99295.09;5069756;28;8929;-71
2023/07/12 09:29:14;;;;;;;;;32.75;30.50;;;;;33.00;29.38;99294.34;5069822;28;9025;-73
2023/07/12 09:31:46;;;;;;;;;34.50;31.50;;;;;33.23;29.55;99297.03;5069851;28;8842;-71
2023/07/12 09:34:20;;;;;;;;;33.50;31.00;;;;;33.28;28.97;99287.44;5069718;28;8866;-71
2023/07/12 09:36:57;;;;;;;;;26.75;26.75;;;;;33.29;28.73;99279.09;5057154;28;8883;-73
2023/07/12 09:39:26;;;;;;;;;26.75;26.75;;;;;33.15;28.77;99279.91;5055478;28;8854;-71
2023/07/12 09:41:59;;;;;;;;;29.25;28.25;;;;;33.12;28.91;99277.59;5051145;28;8845;-72
2023/07/12 09:44:29;;;;;;;;;23.75;23.00;;;;;33.12;28.54;99277.59;5049149;28;9630;-73
2023/07/12 09:47:05;;;;;;;;;28.25;27.75;;;;;33.12;28.67;99272.13;5049769;28;8841;-73
2023/07/12 09:49:39;;;;;;;;;28.25;25.75;;;;;33.21;27.86;99273.75;5049142;28;8984;-73
2023/07/12 09:52:15;;;;;;;;;28.75;28.25;;;;;32.24;28.91;99267.03;5049352;28;8853;-74
2023/07/12 09:54:53;;;;;;;;;25.00;25.00;;;;;32.11;29.54;99269.47;5049057;28;8864;-73
2023/07/12 09:57:42;;;;;;;;;24.50;23.75;;;;;32.74;29.16;99264.81;5048713;28;8857;-73
2023/07/12 10:00:19;;;;;;;;;26.00;25.25;;;;;32.30;29.02;99270.03;5029394;28;8861;-73
2023/07/12 10:03:04;;;;;;;;;27.00;26.50;;;;;32.42;28.44;99276.75;5069504;28;8847;-73
2023/07/12 10:05:34;;;;;;;;;22.25;21.75;;;;;32.91;28.48;99278.28;5068733;28;8859;-74
2023/07/12 10:08:09;;;;;;;;;25.50;24.50;;;;;32.70;27.14;99289.84;5068975;28;8851;-74
2023/07/12 10:10:44;;;;;;;;;24.25;22.75;;;;;31.52;29.21;99288.03;5067793;28;8928;-74
2023/07/12 10:13:35;;;;;;;;;23.75;23.75;;;;;31.06;29.26;99285.91;5068444;28;8885;-74
2023/07/12 10:16:09;;;;;;;;;26.50;26.00;;;;;31.58;28.75;99284.59;5067548;28;8861;-75
2023/07/12 10:18:39;;;;;;;;;25.25;24.00;;;;;31.51;29.08;99295.34;5068129;28;8818;-74
2023/07/12 10:21:14;;;;;;;;;24.75;24.00;;;;;31.40;29.34;99307.41;5068654;28;8905;-75
2023/07/12 10:23:48;;;;;;;;;21.75;21.00;;;;;31.48;29.63;99306.53;5068228;28;8834;-72
2023/07/12 10:26:17;;;;;;;;;25.25;24.50;;;;;31.75;29.37;99299.88;5068667;28;8862;-74
2023/07/12 10:28:54;;;;;;;;;27.25;25.50;;;;;31.17;30.44;99312.72;5068138;28;8858;-74
2023/07/12 10:31:34;;;;;;;;;22.75;20.75;;;;;31.71;29.34;99297.69;5068193;28;8839;-72
2023/07/12 10:34:20;;;;;;;;;25.00;24.00;;;;;32.00;29.08;99297.06;5068588;28;8847;-72
2023/07/12 10:36:53;;;;;;;;;28.25;27.25;;;;;32.22;28.99;99299.00;5048650;28;10181;-71
2023/07/12 10:39:25;;;;;;;;;23.25;23.25;;;;;32.03;29.55;99294.81;5035504;28;8844;-70
2023/07/12 10:42:00;;;;;;;;;29.50;29.00;;;;;31.92;29.55;99289.78;5047629;28;8899;-72
2023/07/12 10:44:33;;;;;;;;;26.75;24.75;;;;;32.28;29.30;99288.41;5047873;28;8876;-72
2023/07/12 10:47:07;;;;;;;;;23.25;22.00;;;;;31.91;29.97;99285.34;5029123;28;8984;-74
2023/07/12 10:49:44;;;;;;;;;26.00;25.25;;;;;32.39;29.51;99279.84;5050700;28;8849;-74
2023/07/12 10:52:27;;;;;;;;;26.50;24.25;;;;;32.68;28.25;99281.88;5068168;28;8959;-74
2023/07/12 10:55:53;;;;;;;;;25.75;24.50;;;;;33.38;27.55;99280.69;5032538;28;8859;-72
2023/07/12 10:58:27;;;;;;;;;24.75;23.25;;;;;33.70;26.88;99275.94;4966790;28;8879;-75
2023/07/12 11:01:00;;;;;;;;;24.50;24.50;;;;;33.80;27.19;99276.47;4966884;28;8989;-74
2023/07/12 11:03:41;;;;;;;;;20.00;20.00;;;;;33.74;26.72;99282.69;4950597;28;8904;-75
2023/07/12 11:06:23;;;;;;;;;25.25;24.75;;;;;32.88;27.96;99275.91;4966515;28;9562;-73
2023/07/12 11:08:56;;;;;;;;;22.75;21.00;;;;;32.98;27.39;99266.47;4966541;28;8864;-74
2023/07/12 11:11:36;;;;;;;;;21.25;20.50;;;;;33.27;26.49;99273.00;4966705;28;9633;-73
2023/07/12 11:14:26;;;;;;;;;19.25;19.25;;;;;33.27;26.43;99270.28;4950406;28;8875;-73
2023/07/12 11:17:14;;;;;;;;;17.50;15.25;;;;;32.71;27.63;99277.94;4966716;28;8867;-76
2023/07/12 11:20:01;;;;;;;;;24.00;23.00;;;;;32.30;28.16;99267.31;4947128;28;9001;-72
2023/07/12 11:23:22;;;;;;;;;26.00;26.00;;;;;32.06;29.13;99252.81;4946819;28;8854;-73
2023/07/12 11:25:57;;;;;;;;;25.50;24.00;;;;;33.23;27.55;99258.91;4939307;28;8908;-75
2023/07/12 11:28:40;;;;;;;;;23.00;22.75;;;;;32.34;28.80;99252.34;4946734;28;8854;-72
2023/07/12 11:31:29;;;;;;;;;27.50;26.25;;;;;32.78;28.12;99252.50;4933261;28;8866;-73
2023/07/12 11:34:06;;;;;;;;;20.50;19.50;;;;;33.12;27.53;99256.63;5000374;28;8871;-73
2023/07/12 11:36:39;;;;;;;;;23.75;23.75;;;;;33.75;27.31;99256.28;5024977;28;8894;-74
2023/07/12 11:39:15;;;;;;;;;20.25;20.25;;;;;32.73;28.03;99254.94;5024574;28;8843;-74
2023/07/12 11:41:53;;;;;;;;;25.00;23.50;;;;;33.04;27.91;99256.69;5024836;28;8867;-73
2023/07/12 11:44:25;;;;;;;;;21.25;21.25;;;;;33.49;26.74;99251.28;5010347;28;8917;-74